createdAt,value
2023-03-26T00:02:25.121Z,100028.28
2023-03-26T00:04:51.553Z,100039.47
2023-03-26T00:07:17.854Z,100027.38
2023-03-26T00:09:44.148Z,100025.44
2023-03-26T00:12:10.516Z,100016.06
2023-03-26T00:14:36.835Z,100010.25
2023-03-26T00:17:03.179Z,100000.44
2023-03-26T00:19:29.533Z,99995.13
2023-03-26T00:21:55.946Z,99984.97
2023-03-26T00:24:22.244Z,99987.72
2023-03-26T00:26:48.586Z,99987.88
2023-03-26T00:29:15.102Z,99982.91
2023-03-26T00:31:41.409Z,99977.28
2023-03-26T00:34:07.750Z,99959.59
2023-03-26T00:36:34.128Z,99961.09
2023-03-26T00:39:00.435Z,99961.38
2023-03-26T00:41:26.941Z,99952.00
2023-03-26T00:43:53.459Z,99955.00
2023-03-26T00:46:19.881Z,99945.97
2023-03-26T00:48:46.337Z,99928.25
2023-03-26T00:51:12.661Z,99914.91
2023-03-26T00:53:39.055Z,99906.16
2023-03-26T00:56:05.431Z,99904.34
2023-03-26T00:58:31.788Z,99898.44
2023-03-26T01:00:58.152Z,99893.44
2023-03-26T01:03:26.975Z,99879.50
2023-03-26T01:05:54.756Z,99881.63
2023-03-26T01:08:21.223Z,99865.28
2023-03-26T01:10:47.550Z,99859.84
2023-03-26T01:13:13.856Z,99855.91
2023-03-26T01:15:40.184Z,99845.94
2023-03-26T01:18:06.566Z,99842.72
2023-03-26T01:20:32.925Z,99834.44
2023-03-26T01:22:59.279Z,99831.38
2023-03-26T01:25:25.654Z,99823.09
2023-03-26T01:27:52.046Z,99818.38
2023-03-26T01:30:18.454Z,99820.19
2023-03-26T01:32:44.862Z,99796.72
2023-03-26T01:35:11.270Z,99795.69
2023-03-26T01:37:37.615Z,99787.22
2023-03-26T01:40:03.955Z,99779.03
2023-03-26T01:42:30.344Z,99762.88
2023-03-26T01:44:56.641Z,99748.78
2023-03-26T01:47:23.003Z,99733.06
2023-03-26T01:49:49.381Z,99718.88
2023-03-26T01:52:15.739Z,99704.31
2023-03-26T01:54:42.115Z,99698.16
2023-03-26T01:57:08.524Z,99680.13
2023-03-26T01:59:34.918Z,99680.13
2023-03-26T02:02:01.395Z,99678.69
2023-03-26T02:04:27.748Z,99670.34
2023-03-26T02:06:54.057Z,99662.94
2023-03-26T02:09:20.413Z,99655.59
2023-03-26T02:11:46.775Z,99646.94
2023-03-26T02:14:13.097Z,99631.84
2023-03-26T02:16:39.511Z,99624.88
2023-03-26T02:19:05.852Z,99616.81
2023-03-26T02:21:32.183Z,99605.63
2023-03-26T02:23:58.505Z,99596.06
2023-03-26T02:26:24.867Z,99573.13
2023-03-26T02:28:51.183Z,99556.97
2023-03-26T02:31:17.502Z,99549.38
2023-03-26T02:33:43.867Z,99545.81
2023-03-26T02:36:10.360Z,99544.56
2023-03-26T02:38:36.797Z,99545.25
2023-03-26T02:41:03.155Z,99534.81
2023-03-26T02:43:29.452Z,99515.28
2023-03-26T02:45:56.002Z,99535.00
2023-03-26T02:48:22.698Z,99528.59
2023-03-26T02:50:49.010Z,99513.22
2023-03-26T02:53:15.320Z,99507.13
2023-03-26T02:55:41.662Z,99497.16
2023-03-26T02:58:08.010Z,99491.53
2023-03-26T03:00:34.374Z,99476.88
2023-03-26T03:03:00.790Z,99481.28
2023-03-26T03:05:27.194Z,99454.31
2023-03-26T03:07:53.519Z,99447.84
2023-03-26T03:10:19.863Z,99442.53
2023-03-26T03:12:46.273Z,99457.81
2023-03-26T03:15:12.616Z,99453.75
2023-03-26T03:17:39.001Z,99444.38
2023-03-26T03:20:05.345Z,99435.63
2023-03-26T03:22:31.687Z,99428.41
2023-03-26T03:24:58.011Z,99423.66
2023-03-26T03:27:24.510Z,99426.25
2023-03-26T03:29:50.803Z,99429.44
2023-03-26T03:32:17.140Z,99437.72
2023-03-26T03:34:43.500Z,99430.50
2023-03-26T03:37:09.861Z,99423.28
2023-03-26T03:39:36.181Z,99432.66
2023-03-26T03:42:02.557Z,99415.09
2023-03-26T03:44:28.937Z,99422.59
2023-03-26T03:46:55.248Z,99428.97
2023-03-26T03:49:21.592Z,99438.16
2023-03-26T03:51:47.911Z,99436.69
2023-03-26T03:54:14.241Z,99439.41
2023-03-26T03:56:40.586Z,99439.13
2023-03-26T03:59:06.961Z,99440.81
2023-03-26T04:01:33.315Z,99439.03
2023-03-26T04:03:59.656Z,99434.34
2023-03-26T04:06:26.061Z,99429.16
2023-03-26T04:08:52.402Z,99423.47
2023-03-26T04:11:18.750Z,99414.59
2023-03-26T04:13:45.107Z,99427.47
2023-03-26T04:16:11.477Z,99430.69
2023-03-26T04:18:37.888Z,99432.53
2023-03-26T04:21:04.264Z,99436.31
2023-03-26T04:23:30.661Z,99426.25
2023-03-26T04:25:57.139Z,99434.16
2023-03-26T04:28:23.609Z,99443.91
2023-03-26T04:30:49.916Z,99446.72
2023-03-26T04:33:16.278Z,99450.00
2023-03-26T04:35:42.643Z,99436.88
2023-03-26T04:38:08.941Z,99456.41
2023-03-26T04:40:35.282Z,99451.53
2023-03-26T04:43:01.669Z,99450.88
2023-03-26T04:45:27.973Z,99453.31
2023-03-26T04:47:54.337Z,99455.09
2023-03-26T04:50:20.731Z,99454.06
2023-03-26T04:52:47.094Z,99472.00
2023-03-26T04:55:13.401Z,99466.91
2023-03-26T04:57:39.713Z,99464.94
2023-03-26T05:00:06.017Z,99468.69
2023-03-26T05:02:32.421Z,99471.72
2023-03-26T05:04:58.808Z,99481.75
2023-03-26T05:07:25.125Z,99490.84
2023-03-26T05:09:51.471Z,99486.72
2023-03-26T05:12:17.804Z,99500.09
2023-03-26T05:14:44.168Z,99500.63
2023-03-26T05:17:10.466Z,99506.25
2023-03-26T05:19:36.762Z,99499.59
2023-03-26T05:22:03.163Z,99509.72
2023-03-26T05:24:29.508Z,99511.16
2023-03-26T05:26:55.802Z,99518.66
2023-03-26T05:29:22.112Z,99512.44
2023-03-26T05:31:48.398Z,99517.53
2023-03-26T05:34:14.757Z,99531.50
2023-03-26T05:36:41.058Z,99522.59
2023-03-26T05:39:07.409Z,99523.84
2023-03-26T05:41:33.715Z,99537.06
2023-03-26T05:44:00.007Z,99541.19
2023-03-26T05:46:26.394Z,99534.25
2023-03-26T05:48:52.742Z,99526.56
2023-03-26T05:51:19.105Z,99514.91
2023-03-26T05:53:45.401Z,99518.94
2023-03-26T05:56:11.715Z,99517.31
2023-03-26T05:58:38.044Z,99521.94
2023-03-26T06:01:04.337Z,99514.06
2023-03-26T06:03:30.790Z,99524.28
2023-03-26T06:05:57.190Z,99517.31
2023-03-26T06:08:23.525Z,99519.59
2023-03-26T06:10:49.843Z,99511.44
2023-03-26T06:13:16.160Z,99518.84
2023-03-26T06:15:42.533Z,99517.81
2023-03-26T06:18:08.984Z,99531.50
2023-03-26T06:20:35.331Z,99536.38
2023-03-26T06:23:01.785Z,99538.94
2023-03-26T06:25:29.214Z,99529.66
2023-03-26T06:27:55.549Z,99540.25
2023-03-26T06:30:21.898Z,99536.88
2023-03-26T06:32:48.351Z,99543.94
2023-03-26T06:35:14.704Z,99538.94
2023-03-26T06:37:41.052Z,99539.69
2023-03-26T06:40:07.379Z,99536.97
2023-03-26T06:43:08.873Z,99531.06
2023-03-26T06:45:20.011Z,99537.66
2023-03-26T06:47:46.348Z,99540.63
2023-03-26T06:50:12.740Z,99547.03
2023-03-26T06:52:39.073Z,99538.19
2023-03-26T06:55:05.408Z,99553.69
2023-03-26T06:57:31.713Z,99550.59
2023-03-26T06:59:58.054Z,99547.03
2023-03-26T07:02:24.398Z,99552.84
2023-03-26T07:04:50.715Z,99555.00
2023-03-26T07:07:17.006Z,99565.78
2023-03-26T07:09:43.301Z,99562.44
2023-03-26T07:12:09.629Z,99562.44
2023-03-26T07:14:35.930Z,99574.06
2023-03-26T07:17:02.329Z,99562.34
2023-03-26T07:19:28.672Z,99571.53
2023-03-26T07:21:54.977Z,99568.06
2023-03-26T07:24:21.261Z,99563.25
2023-03-26T07:26:47.702Z,99573.50
2023-03-26T07:29:14.067Z,99573.97
2023-03-26T07:31:40.420Z,99579.50
2023-03-26T07:34:06.733Z,99573.88
2023-03-26T07:36:33.109Z,99596.41
2023-03-26T07:38:59.398Z,99588.06
2023-03-26T07:41:25.701Z,99578.09
2023-03-26T07:43:52.062Z,99587.13
2023-03-26T07:46:18.492Z,99582.63
2023-03-26T07:48:44.825Z,99586.66
2023-03-26T07:51:11.147Z,99583.00
2023-03-26T07:53:37.518Z,99591.19
2023-03-26T07:56:03.861Z,99587.22
2023-03-26T07:58:30.306Z,99589.38
2023-03-26T08:00:56.743Z,99593.16
2023-03-26T08:03:23.372Z,99596.63
2023-03-26T08:05:49.823Z,99598.09
2023-03-26T08:08:16.162Z,99598.00
2023-03-26T08:10:42.522Z,99611.19
2023-03-26T08:13:08.821Z,99604.78
2023-03-26T08:15:35.171Z,99611.72
2023-03-26T08:18:01.532Z,99601.59
2023-03-26T08:20:27.940Z,99614.00
2023-03-26T08:22:54.282Z,99616.91
2023-03-26T08:25:20.599Z,99611.34
2023-03-26T08:27:46.883Z,99603.38
2023-03-26T08:30:13.180Z,99611.06
2023-03-26T08:32:39.521Z,99614.19
2023-03-26T08:35:05.860Z,99622.63
2023-03-26T08:37:32.211Z,99614.44
2023-03-26T08:39:58.548Z,99622.91
2023-03-26T08:42:24.910Z,99626.09
2023-03-26T08:44:51.253Z,99618.88
2023-03-26T08:47:17.607Z,99618.69
2023-03-26T08:49:43.920Z,99632.78
2023-03-26T08:52:10.315Z,99625.66
2023-03-26T08:54:36.667Z,99625.34
2023-03-26T08:57:03.049Z,99627.63
2023-03-26T08:59:29.456Z,99635.03
2023-03-26T09:01:55.848Z,99640.78
2023-03-26T09:04:22.196Z,99639.44
2023-03-26T09:06:48.541Z,99634.19
2023-03-26T09:09:19.217Z,99638.69
2023-03-26T09:11:45.884Z,99641.31
2023-03-26T09:14:12.196Z,99637.19
2023-03-26T09:16:38.553Z,99646.84
2023-03-26T09:19:05.062Z,99646.84
2023-03-26T09:21:31.375Z,99654.56
2023-03-26T09:23:57.715Z,99655.59
2023-03-26T09:26:24.075Z,99648.19
2023-03-26T09:28:50.444Z,99657.47
2023-03-26T09:31:16.837Z,99662.25
2023-03-26T09:33:43.153Z,99658.88
2023-03-26T09:36:09.598Z,99662.00
2023-03-26T09:38:35.894Z,99667.13
2023-03-26T09:41:02.219Z,99667.44
2023-03-26T09:43:28.558Z,99671.19
2023-03-26T09:45:54.881Z,99670.75
2023-03-26T09:48:21.386Z,99677.28
2023-03-26T09:50:47.685Z,99682.53
2023-03-26T09:53:14.021Z,99679.53
2023-03-26T09:55:40.332Z,99681.50
2023-03-26T09:58:06.817Z,99683.03
2023-03-26T10:00:33.188Z,99682.25
2023-03-26T10:02:59.585Z,99676.72
2023-03-26T10:05:25.951Z,99682.00
2023-03-26T10:07:52.248Z,99686.38
2023-03-26T10:10:18.543Z,99685.44
2023-03-26T10:12:44.929Z,99682.44
2023-03-26T10:15:11.274Z,99697.66
2023-03-26T10:17:37.627Z,99704.22
2023-03-26T10:20:03.965Z,99706.78
2023-03-26T10:22:30.263Z,99699.81
2023-03-26T10:24:56.612Z,99711.00
2023-03-26T10:27:24.670Z,99711.59
2023-03-26T10:29:51.185Z,99717.50
2023-03-26T10:32:17.636Z,99710.84
2023-03-26T10:34:43.937Z,99716.88
2023-03-26T10:37:10.268Z,99717.94
2023-03-26T10:39:38.990Z,99710.44
2023-03-26T10:42:06.447Z,99708.38
2023-03-26T10:44:32.749Z,99714.59
2023-03-26T10:46:59.092Z,99714.31
2023-03-26T10:49:25.473Z,99728.66
2023-03-26T10:51:51.792Z,99719.47
2023-03-26T10:54:18.109Z,99711.25
2023-03-26T10:56:44.423Z,99713.31
2023-03-26T10:59:10.777Z,99722.34
2023-03-26T11:01:37.096Z,99716.63
2023-03-26T11:04:03.522Z,99712.44
2023-03-26T11:06:29.918Z,99711.88
2023-03-26T11:08:56.280Z,99717.25
2023-03-26T11:11:22.630Z,99716.63
2023-03-26T11:13:48.994Z,99724.38
2023-03-26T11:16:15.397Z,99720.13
2023-03-26T11:18:41.755Z,99717.31
2023-03-26T11:21:18.653Z,99710.94
2023-03-26T11:23:46.751Z,99715.59
2023-03-26T11:26:13.068Z,99707.56
2023-03-26T11:28:39.377Z,99710.47
2023-03-26T11:31:05.767Z,99704.34
2023-03-26T11:33:32.571Z,99708.78
2023-03-26T11:35:59.349Z,99692.69
2023-03-26T11:38:25.689Z,99699.53
2023-03-26T11:40:52.063Z,99691.69
2023-03-26T11:43:18.515Z,99690.94
2023-03-26T11:45:44.838Z,99695.16
2023-03-26T11:48:11.210Z,99697.44
2023-03-26T11:50:37.558Z,99708.34
2023-03-26T11:53:03.862Z,99709.97
2023-03-26T11:55:30.226Z,99707.56
2023-03-26T11:57:56.574Z,99709.16
2023-03-26T12:00:22.931Z,99717.13
2023-03-26T12:02:49.348Z,99722.88
2023-03-26T12:05:15.654Z,99723.63
2023-03-26T12:07:42.105Z,99723.03
2023-03-26T12:10:17.640Z,99731.38
2023-03-26T12:12:45.392Z,99730.34
2023-03-26T12:15:11.685Z,99726.59
2023-03-26T12:17:38.088Z,99719.28
2023-03-26T12:20:04.431Z,99726.41
2023-03-26T12:22:30.791Z,99721.81
2023-03-26T12:24:57.125Z,99716.84
2023-03-26T12:27:23.465Z,99708.28
2023-03-26T12:29:49.805Z,99708.00
2023-03-26T12:32:16.115Z,99705.09
2023-03-26T12:34:42.415Z,99702.25
2023-03-26T12:37:08.739Z,99709.72
2023-03-26T12:40:07.270Z,99722.88
2023-03-26T12:44:41.742Z,99723.78
2023-03-26T12:45:07.696Z,99704.84
2023-03-26T12:48:00.848Z,99694.22
2023-03-26T12:50:34.647Z,99692.38
2023-03-26T12:53:02.063Z,99687.50
2023-03-26T12:55:28.381Z,99682.06
2023-03-26T12:57:54.725Z,99679.06
2023-03-26T13:00:21.062Z,99683.31
2023-03-26T13:02:47.595Z,99676.63
2023-03-26T13:05:14.064Z,99683.66
2023-03-26T13:07:40.460Z,99681.38
2023-03-26T13:10:06.772Z,99674.38
2023-03-26T13:12:33.072Z,99672.59
2023-03-26T13:14:59.423Z,99673.81
2023-03-26T13:17:25.805Z,99675.16
2023-03-26T13:19:52.107Z,99686.66
2023-03-26T13:22:18.404Z,99675.59
2023-03-26T13:24:44.766Z,99683.81
2023-03-26T13:27:11.070Z,99680.63
2023-03-26T13:29:37.367Z,99683.94
2023-03-26T13:32:03.734Z,99687.59
2023-03-26T13:34:30.043Z,99679.06
2023-03-26T13:36:56.441Z,99679.69
2023-03-26T13:39:22.811Z,99687.59
2023-03-26T13:41:49.172Z,99685.16
2023-03-26T13:44:15.551Z,99688.22
2023-03-26T13:46:41.942Z,99687.88
2023-03-26T13:49:08.317Z,99693.06
2023-03-26T13:51:34.695Z,99692.25
2023-03-26T13:54:01.015Z,99689.25
2023-03-26T13:56:27.319Z,99677.88
2023-03-26T13:58:53.613Z,99677.09
2023-03-26T14:01:20.006Z,99679.69
2023-03-26T14:03:46.405Z,99677.13
2023-03-26T14:06:12.768Z,99681.97
2023-03-26T14:08:39.110Z,99681.78
2023-03-26T14:11:05.447Z,99678.88
2023-03-26T14:13:31.763Z,99683.94
2023-03-26T14:15:58.222Z,99682.72
2023-03-26T14:18:24.541Z,99684.78
2023-03-26T14:20:50.878Z,99686.56
2023-03-26T14:23:17.214Z,99682.63
2023-03-26T14:25:43.562Z,99678.41
2023-03-26T14:28:09.918Z,99681.22
2023-03-26T14:30:40.660Z,99694.09
2023-03-26T14:33:07.021Z,99692.97
2023-03-26T14:35:33.387Z,99684.59
2023-03-26T14:38:00.038Z,99670.91
2023-03-26T14:40:26.416Z,99684.53
2023-03-26T14:42:54.537Z,99687.59
2023-03-26T14:45:22.799Z,99693.63
2023-03-26T14:47:49.276Z,99689.97
2023-03-26T14:50:15.724Z,99699.66
2023-03-26T14:52:42.101Z,99700.69
2023-03-26T14:55:08.402Z,99701.13
2023-03-26T14:57:34.736Z,99703.59
2023-03-26T15:00:01.125Z,99704.53
2023-03-26T15:02:27.545Z,99704.81
2023-03-26T15:04:53.989Z,99700.28
2023-03-26T15:07:20.331Z,99704.22
2023-03-26T15:09:46.631Z,99711.78
2023-03-26T15:12:13.673Z,99723.28
2023-03-26T15:14:40.059Z,99727.97
2023-03-26T15:17:06.449Z,99733.91
2023-03-26T15:19:32.808Z,99752.19
2023-03-26T15:21:59.124Z,99751.44
2023-03-26T15:24:25.478Z,99746.00
2023-03-26T15:26:51.827Z,99756.75
2023-03-26T15:29:18.227Z,99754.94
2023-03-26T15:31:44.613Z,99756.63
2023-03-26T15:34:10.989Z,99756.28
2023-03-26T15:36:37.682Z,99757.38
2023-03-26T15:39:03.981Z,99759.00
2023-03-26T15:41:30.330Z,99752.06
2023-03-26T15:44:24.938Z,99758.09
2023-03-26T15:46:44.182Z,99765.69
2023-03-26T15:49:10.523Z,99760.50
2023-03-26T15:51:47.410Z,99769.91
2023-03-26T15:54:14.135Z,99767.50
2023-03-26T15:56:40.587Z,99774.31
2023-03-26T15:59:06.985Z,99778.53
2023-03-26T16:01:33.337Z,99782.34
2023-03-26T16:03:59.720Z,99791.88
2023-03-26T16:06:26.061Z,99802.03
2023-03-26T16:08:52.358Z,99810.47
2023-03-26T16:11:18.879Z,99811.25
2023-03-26T16:13:45.241Z,99825.34
2023-03-26T16:16:11.677Z,99835.63
2023-03-26T16:18:38.055Z,99837.88
2023-03-26T16:21:04.506Z,99839.25
2023-03-26T16:23:30.930Z,99848.16
2023-03-26T16:25:57.232Z,99859.66
2023-03-26T16:28:23.567Z,99859.25
2023-03-26T16:30:49.885Z,99873.00
2023-03-26T16:33:16.208Z,99870.56
2023-03-26T16:35:42.597Z,99865.28
2023-03-26T16:38:08.992Z,99869.06
2023-03-26T16:40:35.327Z,99877.69
2023-03-26T16:43:01.642Z,99880.88
2023-03-26T16:45:27.936Z,99880.59
2023-03-26T16:47:54.275Z,99884.25
2023-03-26T16:50:20.672Z,99890.91
2023-03-26T16:52:47.092Z,99880.91
2023-03-26T16:55:13.470Z,99895.91
2023-03-26T16:57:39.849Z,99898.47
2023-03-26T17:00:07.389Z,99904.66
2023-03-26T17:02:34.181Z,99911.94
2023-03-26T17:05:00.620Z,99920.53
2023-03-26T17:07:26.941Z,99926.78
2023-03-26T17:09:53.239Z,99928.69
2023-03-26T17:12:19.561Z,99941.28
2023-03-26T17:14:45.888Z,99946.41
2023-03-26T17:17:12.186Z,99952.78
2023-03-26T17:19:38.517Z,99956.56
2023-03-26T17:22:04.904Z,99957.78
2023-03-26T17:24:31.254Z,99964.75
2023-03-26T17:26:57.562Z,99967.47
2023-03-26T17:29:23.867Z,99981.09
2023-03-26T17:31:50.192Z,99982.47
2023-03-26T17:34:16.585Z,99988.97
2023-03-26T17:36:42.920Z,99989.44
2023-03-26T17:39:09.234Z,99993.34
2023-03-26T17:41:35.612Z,100007.91
2023-03-26T17:44:01.965Z,100023.00
2023-03-26T17:46:28.346Z,100021.38
2023-03-26T17:48:54.697Z,100029.38
2023-03-26T17:51:21.051Z,100030.75
2023-03-26T17:53:47.430Z,100040.28
2023-03-26T17:56:13.749Z,100044.06
2023-03-26T17:58:40.041Z,100046.19
2023-03-26T18:01:06.441Z,100045.28
2023-03-26T18:03:32.823Z,100066.75
2023-03-26T18:05:59.234Z,100066.31
2023-03-26T18:08:25.684Z,100078.41
2023-03-26T18:10:51.991Z,100079.78
2023-03-26T18:13:18.342Z,100086.56
2023-03-26T18:15:45.066Z,100082.50
2023-03-26T18:18:11.501Z,100089.59
2023-03-26T18:20:37.835Z,100097.34
2023-03-26T18:23:04.189Z,100106.41
2023-03-26T18:25:30.482Z,100116.38
2023-03-26T18:27:56.835Z,100124.09
2023-03-26T18:30:23.158Z,100136.06
2023-03-26T18:32:49.472Z,100138.63
2023-03-26T18:35:15.859Z,100138.03
2023-03-26T18:37:42.255Z,100151.97
2023-03-26T18:40:08.572Z,100159.97
2023-03-26T18:42:34.879Z,100163.47
2023-03-26T18:45:03.290Z,100173.56
2023-03-26T18:47:31.110Z,100173.13
2023-03-26T18:49:57.436Z,100186.13
2023-03-26T18:52:23.805Z,100195.38
2023-03-26T18:54:50.165Z,100205.50
2023-03-26T18:57:16.638Z,100210.53
2023-03-26T18:59:42.985Z,100216.25
2023-03-26T19:02:09.467Z,100224.59
2023-03-26T19:04:35.869Z,100233.94
2023-03-26T19:07:02.190Z,100251.81
2023-03-26T19:09:31.760Z,100253.03
2023-03-26T19:11:58.879Z,100249.53
2023-03-26T19:14:25.212Z,100263.44
2023-03-26T19:16:51.772Z,100258.59
2023-03-26T19:19:18.131Z,100263.91
2023-03-26T19:21:44.424Z,100265.88
2023-03-26T19:24:10.742Z,100263.91
2023-03-26T19:26:37.046Z,100268.00
2023-03-26T19:29:03.411Z,100269.81
2023-03-26T19:31:29.736Z,100277.09
2023-03-26T19:33:56.128Z,100287.66
2023-03-26T19:36:22.617Z,100289.47
2023-03-26T19:38:48.968Z,100312.94
2023-03-26T19:41:15.294Z,100319.28
2023-03-26T19:43:41.608Z,100321.72
2023-03-26T19:46:08.149Z,100335.16
2023-03-26T19:48:46.797Z,100328.97
2023-03-26T19:51:13.463Z,100340.31
2023-03-26T19:53:39.815Z,100341.06
2023-03-26T19:56:06.427Z,100351.53
2023-03-26T19:58:32.906Z,100359.09
2023-03-26T20:00:59.515Z,100362.59
2023-03-26T20:03:26.281Z,100373.63
2023-03-26T20:05:52.911Z,100389.53
2023-03-26T20:08:19.253Z,100394.16
2023-03-26T20:10:45.579Z,100392.38
2023-03-26T20:13:11.884Z,100399.59
2023-03-26T20:15:38.186Z,100413.69
2023-03-26T20:18:04.579Z,100414.88
2023-03-26T20:20:30.904Z,100417.81
2023-03-26T20:22:57.245Z,100440.53
2023-03-26T20:25:23.563Z,100440.16
2023-03-26T20:27:49.909Z,100439.72
2023-03-26T20:30:19.058Z,100440.41
2023-03-26T20:32:45.732Z,100452.19
2023-03-26T20:35:12.465Z,100455.72
2023-03-26T20:37:38.821Z,100469.03
2023-03-26T20:40:05.198Z,100479.72
2023-03-26T20:42:31.547Z,100489.00
2023-03-26T20:44:57.857Z,100502.91
2023-03-26T20:47:24.264Z,100499.69
2023-03-26T20:49:50.604Z,100504.69
2023-03-26T20:52:16.912Z,100508.81
2023-03-26T20:54:43.227Z,100521.09
2023-03-26T20:57:09.627Z,100521.59
2023-03-26T20:59:36.124Z,100531.28
2023-03-26T21:02:02.528Z,100524.66
2023-03-26T21:04:28.920Z,100543.88
2023-03-26T21:07:03.220Z,100553.72
2023-03-26T21:09:33.853Z,100557.88
2023-03-26T21:12:00.191Z,100568.09
2023-03-26T21:14:26.547Z,100574.31
2023-03-26T21:16:52.940Z,100584.34
2023-03-26T21:19:19.362Z,100597.19
2023-03-26T21:21:45.678Z,100609.94
2023-03-26T21:24:12.019Z,100614.94
2023-03-26T21:26:41.723Z,100626.03
2023-03-26T21:29:08.313Z,100631.78
2023-03-26T21:31:34.693Z,100650.97
2023-03-26T21:34:01.064Z,100656.31
2023-03-26T21:36:27.477Z,100653.88
2023-03-26T21:38:53.865Z,100669.28
2023-03-26T21:41:20.239Z,100663.41
2023-03-26T21:43:46.585Z,100679.28
2023-03-26T21:46:12.934Z,100680.28
2023-03-26T21:48:39.333Z,100694.97
2023-03-26T21:51:05.637Z,100699.44
2023-03-26T21:53:31.981Z,100702.91
2023-03-26T21:55:58.345Z,100707.81
2023-03-26T21:58:24.705Z,100718.50
2023-03-26T22:00:51.091Z,100720.00
2023-03-26T22:03:17.527Z,100729.28
2023-03-26T22:05:43.894Z,100743.34
2023-03-26T22:08:10.240Z,100753.47
2023-03-26T22:10:36.586Z,100754.53
2023-03-26T22:13:02.921Z,100757.81
2023-03-26T22:15:29.267Z,100761.22
2023-03-26T22:17:55.725Z,100769.50
2023-03-26T22:20:22.176Z,100774.59
2023-03-26T22:22:48.544Z,100790.41
2023-03-26T22:25:14.888Z,100787.56
2023-03-26T22:27:43.849Z,100801.50
2023-03-26T22:30:11.347Z,100807.63
2023-03-26T22:32:37.653Z,100824.59
2023-03-26T22:35:03.968Z,100826.34
2023-03-26T22:37:30.278Z,100833.31
2023-03-26T22:39:56.608Z,100839.94
2023-03-26T22:42:22.938Z,100844.88
2023-03-26T22:44:49.307Z,100842.69
2023-03-26T22:47:15.606Z,100860.34
2023-03-26T22:49:41.925Z,100862.94
2023-03-26T22:52:08.226Z,100861.75
2023-03-26T22:54:34.519Z,100872.53
2023-03-26T22:57:00.901Z,100878.06
2023-03-26T22:59:27.247Z,100877.22
2023-03-26T23:01:53.632Z,100877.00
2023-03-26T23:04:31.611Z,100880.03
2023-03-26T23:06:58.641Z,100889.31
2023-03-26T23:09:24.997Z,100888.97
2023-03-26T23:11:51.318Z,100894.41
2023-03-26T23:14:17.670Z,100901.59
2023-03-26T23:16:43.979Z,100909.34
2023-03-26T23:19:10.294Z,100909.66
2023-03-26T23:21:36.662Z,100915.69
2023-03-26T23:24:03.049Z,100924.81
2023-03-26T23:26:35.001Z,100924.47
2023-03-26T23:29:04.215Z,100919.47
2023-03-26T23:31:30.634Z,100915.31
2023-03-26T23:33:57.026Z,100919.78
2023-03-26T23:36:23.374Z,100931.53
2023-03-26T23:38:49.731Z,100929.38
2023-03-26T23:41:16.106Z,100935.06
2023-03-26T23:43:54.645Z,100935.34
2023-03-26T23:46:21.746Z,100942.97
2023-03-26T23:48:48.068Z,100943.06
2023-03-26T23:51:14.406Z,100956.50
2023-03-26T23:53:40.726Z,100955.19
2023-03-26T23:56:07.053Z,100967.63
2023-03-26T23:58:33.389Z,100979.28
